createdAt,value
2023-05-23T00:00:58.331Z,15.09
2023-05-23T00:02:00.387Z,15.12
2023-05-23T00:03:03.032Z,15.09
2023-05-23T00:04:05.228Z,15.15
2023-05-23T00:05:07.516Z,15.13
2023-05-23T00:06:10.246Z,15.10
2023-05-23T00:07:12.267Z,15.13
2023-05-23T00:08:14.300Z,15.05
2023-05-23T00:09:16.687Z,15.07
2023-05-23T00:10:18.722Z,15.12
2023-05-23T00:11:24.090Z,15.00
2023-05-23T00:12:26.134Z,15.04
2023-05-23T00:13:28.202Z,15.03
2023-05-23T00:14:33.915Z,15.01
2023-05-23T00:15:39.102Z,15.04
2023-05-23T00:16:45.281Z,15.02
2023-05-23T00:17:47.619Z,15.05
2023-05-23T00:18:50.348Z,15.03
2023-05-23T00:19:52.900Z,15.02
2023-05-23T00:20:54.889Z,15.07
2023-05-23T00:21:56.989Z,15.09
2023-05-23T00:22:59.552Z,15.06
2023-05-23T00:24:02.594Z,15.12
2023-05-23T00:25:04.799Z,15.15
2023-05-23T00:26:06.827Z,15.08
2023-05-23T00:27:08.766Z,15.08
2023-05-23T00:28:10.772Z,15.11
2023-05-23T00:29:16.249Z,15.12
2023-05-23T00:30:18.366Z,15.15
2023-05-23T00:31:20.484Z,15.15
2023-05-23T00:32:22.524Z,15.15
2023-05-23T00:33:24.699Z,15.11
2023-05-23T00:34:26.666Z,15.14
2023-05-23T00:35:28.745Z,15.11
2023-05-23T00:36:30.998Z,15.05
2023-05-23T00:37:34.209Z,15.05
2023-05-23T00:38:36.194Z,15.07
2023-05-23T00:39:38.131Z,15.06
2023-05-23T00:40:40.226Z,15.06
2023-05-23T00:41:42.354Z,15.16
2023-05-23T00:42:44.572Z,15.14
2023-05-23T00:43:46.906Z,15.13
2023-05-23T00:44:49.176Z,15.16
2023-05-23T00:45:51.289Z,15.20
2023-05-23T00:46:55.406Z,15.20
2023-05-23T00:47:59.312Z,15.21
2023-05-23T00:49:01.492Z,15.15
2023-05-23T00:50:03.593Z,15.16
2023-05-23T00:51:05.782Z,15.16
2023-05-23T00:52:08.034Z,15.14
2023-05-23T00:53:10.606Z,15.22
2023-05-23T00:54:14.886Z,15.21
2023-05-23T00:55:16.979Z,15.28
2023-05-23T00:56:19.428Z,15.20
2023-05-23T00:57:22.615Z,15.22
2023-05-23T00:58:24.872Z,15.15
2023-05-23T00:59:27.248Z,15.17
2023-05-23T01:00:30.285Z,15.21
2023-05-23T01:01:33.571Z,15.22
2023-05-23T01:02:39.131Z,15.22
2023-05-23T01:03:41.276Z,15.21
2023-05-23T01:04:44.168Z,15.18
2023-05-23T01:05:46.314Z,15.14
2023-05-23T01:06:49.409Z,15.14
2023-05-23T01:07:51.819Z,15.12
2023-05-23T01:08:53.962Z,15.11
2023-05-23T01:09:55.909Z,15.05
2023-05-23T01:11:01.543Z,15.08
2023-05-23T01:12:12.151Z,15.11
2023-05-23T01:13:20.290Z,15.05
2023-05-23T01:14:27.210Z,15.02
2023-05-23T01:15:32.925Z,15.03
2023-05-23T01:16:49.120Z,15.06
2023-05-23T01:17:52.093Z,14.99
2023-05-23T01:18:59.181Z,14.93
2023-05-23T01:20:10.282Z,14.96
2023-05-23T01:21:17.491Z,14.90
2023-05-23T01:22:23.690Z,14.93
2023-05-23T01:23:31.519Z,14.86
2023-05-23T01:24:37.791Z,14.91
2023-05-23T01:25:49.792Z,14.94
2023-05-23T01:27:11.108Z,14.97
2023-05-23T01:28:16.894Z,14.86
2023-05-23T01:29:27.027Z,14.86
2023-05-23T01:30:32.060Z,14.75
2023-05-23T01:31:35.738Z,14.73
2023-05-23T01:32:39.976Z,14.71
2023-05-23T01:33:43.528Z,14.80
2023-05-23T01:34:46.109Z,14.76
2023-05-23T01:35:48.869Z,14.84
2023-05-23T01:36:54.016Z,14.82
2023-05-23T01:37:56.356Z,14.74
2023-05-23T01:38:59.222Z,14.75
2023-05-23T01:40:03.240Z,14.70
2023-05-23T01:41:05.390Z,14.69
2023-05-23T01:42:08.397Z,14.65
2023-05-23T01:43:10.859Z,14.63
2023-05-23T01:44:12.945Z,14.60
2023-05-23T01:45:16.101Z,14.66
2023-05-23T01:46:18.167Z,14.57
2023-05-23T01:47:21.243Z,14.60
2023-05-23T01:48:25.101Z,14.67
2023-05-23T01:49:27.649Z,14.71
2023-05-23T01:50:31.710Z,14.62
2023-05-23T01:51:34.282Z,14.50
2023-05-23T01:52:36.989Z,14.49
2023-05-23T01:53:39.058Z,14.51
2023-05-23T01:54:42.528Z,14.50
2023-05-23T01:55:45.626Z,14.46
2023-05-23T01:56:48.251Z,14.47
2023-05-23T01:57:51.610Z,14.58
2023-05-23T01:58:54.297Z,14.49
2023-05-23T01:59:56.884Z,14.48
2023-05-23T02:00:59.333Z,14.48
2023-05-23T02:02:01.607Z,14.47
2023-05-23T02:03:04.303Z,14.48
2023-05-23T02:04:07.805Z,14.46
2023-05-23T02:05:10.498Z,14.44
2023-05-23T02:06:12.550Z,14.49
2023-05-23T02:07:14.534Z,14.46
2023-05-23T02:08:16.539Z,14.47
2023-05-23T02:09:18.702Z,14.54
2023-05-23T02:10:21.038Z,14.50
2023-05-23T02:11:23.116Z,14.52
2023-05-23T02:12:25.420Z,14.49
2023-05-23T02:13:27.374Z,14.44
2023-05-23T02:14:29.389Z,14.48
2023-05-23T02:15:31.738Z,14.45
2023-05-23T02:16:36.741Z,14.41
2023-05-23T02:17:41.368Z,14.45
2023-05-23T02:18:46.229Z,14.40
2023-05-23T02:19:48.679Z,14.40
2023-05-23T02:20:50.840Z,14.42
2023-05-23T02:21:52.860Z,14.45
2023-05-23T02:22:54.862Z,14.44
2023-05-23T02:23:56.871Z,14.45
2023-05-23T02:24:58.848Z,14.42
2023-05-23T02:26:00.881Z,14.46
2023-05-23T02:27:03.389Z,14.46
2023-05-23T02:28:05.508Z,14.51
2023-05-23T02:29:07.534Z,14.54
2023-05-23T02:30:09.914Z,14.54
2023-05-23T02:31:11.994Z,14.51
2023-05-23T02:32:14.094Z,14.49
2023-05-23T02:33:16.794Z,14.56
2023-05-23T02:34:18.825Z,14.58
2023-05-23T02:35:20.985Z,14.52
2023-05-23T02:36:22.979Z,14.57
2023-05-23T02:37:25.080Z,14.56
2023-05-23T02:38:27.437Z,14.54
2023-05-23T02:39:29.483Z,14.54
2023-05-23T02:40:31.454Z,14.57
2023-05-23T02:41:33.446Z,14.54
2023-05-23T02:42:35.555Z,14.56
2023-05-23T02:43:38.042Z,14.58
2023-05-23T02:44:40.453Z,14.56
2023-05-23T02:45:42.670Z,14.61
2023-05-23T02:46:45.570Z,14.50
2023-05-23T02:47:47.724Z,14.49
2023-05-23T02:48:49.741Z,14.47
2023-05-23T02:49:51.820Z,14.52
2023-05-23T02:50:53.833Z,14.49
2023-05-23T02:51:55.847Z,14.51
2023-05-23T02:52:58.136Z,14.59
2023-05-23T02:54:00.152Z,14.54
2023-05-23T02:55:02.263Z,14.57
2023-05-23T02:56:08.545Z,14.48
2023-05-23T02:57:10.731Z,14.52
2023-05-23T02:58:15.014Z,14.52
2023-05-23T02:59:17.946Z,14.44
2023-05-23T03:00:20.173Z,14.41
2023-05-23T03:01:26.612Z,14.43
2023-05-23T03:02:28.610Z,14.39
2023-05-23T03:03:33.563Z,14.42
2023-05-23T03:04:38.125Z,14.46
2023-05-23T03:05:40.779Z,14.47
2023-05-23T03:06:44.373Z,14.37
2023-05-23T03:07:46.468Z,14.41
2023-05-23T03:08:48.521Z,14.43
2023-05-23T03:09:50.574Z,14.48
2023-05-23T03:10:53.217Z,14.46
2023-05-23T03:11:55.237Z,14.39
2023-05-23T03:12:57.547Z,14.42
2023-05-23T03:13:59.712Z,14.41
2023-05-23T03:15:01.766Z,14.39
2023-05-23T03:16:03.952Z,14.40
2023-05-23T03:17:06.099Z,14.43
2023-05-23T03:18:08.130Z,14.41
2023-05-23T03:19:10.239Z,14.39
2023-05-23T03:20:12.312Z,14.44
2023-05-23T03:21:14.338Z,14.43
2023-05-23T03:22:16.738Z,14.43
2023-05-23T03:23:18.908Z,14.42
2023-05-23T03:24:20.933Z,14.39
2023-05-23T03:25:22.988Z,14.32
2023-05-23T03:26:25.211Z,14.34
2023-05-23T03:27:27.235Z,14.35
2023-05-23T03:28:31.073Z,14.30
2023-05-23T03:29:33.101Z,14.26
2023-05-23T03:30:35.142Z,14.23
2023-05-23T03:31:37.458Z,14.24
2023-05-23T03:32:39.731Z,14.27
2023-05-23T03:33:41.906Z,14.16
2023-05-23T03:34:45.644Z,14.24
2023-05-23T03:35:47.673Z,14.10
2023-05-23T03:36:49.862Z,14.10
2023-05-23T03:37:51.903Z,14.09
2023-05-23T03:38:53.998Z,14.07
2023-05-23T03:39:56.018Z,14.06
2023-05-23T03:40:57.998Z,14.04
2023-05-23T03:42:00.193Z,14.02
2023-05-23T03:43:06.025Z,13.95
2023-05-23T03:44:09.795Z,13.89
2023-05-23T03:45:12.373Z,13.86
2023-05-23T03:46:14.481Z,13.87
2023-05-23T03:47:17.217Z,13.84
2023-05-23T03:48:20.367Z,13.85
2023-05-23T03:49:22.998Z,13.84
2023-05-23T03:50:26.507Z,13.82
2023-05-23T03:51:28.931Z,13.79
2023-05-23T03:52:31.087Z,13.80
2023-05-23T03:53:34.389Z,13.79
2023-05-23T03:54:37.941Z,13.77
2023-05-23T03:55:40.163Z,13.81
2023-05-23T03:56:42.447Z,13.80
2023-05-23T03:57:44.836Z,13.77
2023-05-23T03:58:46.946Z,13.70
2023-05-23T03:59:50.543Z,13.66
2023-05-23T04:00:53.223Z,13.62
2023-05-23T04:01:58.849Z,13.65
2023-05-23T04:03:01.068Z,13.70
2023-05-23T04:04:05.008Z,13.72
2023-05-23T04:05:10.283Z,13.69
2023-05-23T04:06:14.408Z,13.73
2023-05-23T04:07:19.112Z,13.71
2023-05-23T04:08:22.228Z,13.68
2023-05-23T04:09:26.058Z,13.66
2023-05-23T04:10:28.933Z,13.70
2023-05-23T04:11:31.298Z,13.63
2023-05-23T04:12:33.321Z,13.63
2023-05-23T04:13:35.641Z,13.62
2023-05-23T04:14:39.460Z,13.60
2023-05-23T04:15:42.938Z,13.66
2023-05-23T04:16:48.208Z,13.61
2023-05-23T04:17:51.490Z,13.57
2023-05-23T04:18:54.407Z,13.56
2023-05-23T04:19:56.704Z,13.49
2023-05-23T04:20:59.125Z,13.48
2023-05-23T04:22:01.206Z,13.48
2023-05-23T04:23:04.401Z,13.52
2023-05-23T04:24:09.270Z,13.53
2023-05-23T04:25:11.687Z,13.50
2023-05-23T04:26:20.525Z,13.51
2023-05-23T04:27:27.309Z,13.53
2023-05-23T04:28:29.628Z,13.52
2023-05-23T04:29:31.727Z,13.56
2023-05-23T04:30:34.634Z,13.52
2023-05-23T04:31:36.695Z,13.54
2023-05-23T04:32:39.093Z,13.54
2023-05-23T04:33:41.526Z,13.46
2023-05-23T04:34:44.301Z,13.46
2023-05-23T04:35:46.473Z,13.53
2023-05-23T04:36:49.428Z,13.50
2023-05-23T04:37:56.640Z,13.40
2023-05-23T04:39:00.184Z,13.44
2023-05-23T04:40:05.178Z,13.45
2023-05-23T04:41:28.236Z,13.48
2023-05-23T04:42:33.606Z,13.43
2023-05-23T04:43:42.887Z,13.46
2023-05-23T04:44:57.488Z,13.50
2023-05-23T04:46:18.951Z,13.50
2023-05-23T04:47:24.992Z,13.52
2023-05-23T04:48:37.091Z,13.45
2023-05-23T04:49:39.878Z,13.41
2023-05-23T04:50:43.677Z,13.41
2023-05-23T04:51:45.788Z,13.39
2023-05-23T04:53:02.479Z,13.39
2023-05-23T04:54:04.802Z,13.36
2023-05-23T04:55:08.590Z,13.37
2023-05-23T04:56:11.095Z,13.31
2023-05-23T04:57:14.182Z,13.34
2023-05-23T04:58:16.174Z,13.38
2023-05-23T04:59:18.262Z,13.27
2023-05-23T05:00:20.472Z,13.26
2023-05-23T05:01:25.938Z,13.27
2023-05-23T05:02:33.824Z,13.26
2023-05-23T05:03:36.258Z,13.28
2023-05-23T05:04:38.593Z,13.25
2023-05-23T05:05:41.088Z,13.19
2023-05-23T05:06:43.095Z,13.19
2023-05-23T05:07:45.557Z,13.17
2023-05-23T05:08:47.637Z,13.12
2023-05-23T05:09:50.062Z,13.14
2023-05-23T05:10:54.433Z,13.05
2023-05-23T05:11:56.444Z,13.03
2023-05-23T05:12:58.380Z,13.03
2023-05-23T05:14:03.235Z,12.99
2023-05-23T05:15:05.668Z,12.95
2023-05-23T05:16:07.806Z,13.00
2023-05-23T05:17:10.191Z,13.01
2023-05-23T05:18:36.386Z,13.05
2023-05-23T05:19:38.671Z,13.04
2023-05-23T05:20:41.818Z,13.05
2023-05-23T05:21:44.177Z,13.07
2023-05-23T05:22:46.711Z,13.02
2023-05-23T05:23:48.865Z,13.01
2023-05-23T05:24:52.647Z,13.01
2023-05-23T05:25:56.274Z,13.02
2023-05-23T05:26:58.366Z,12.99
2023-05-23T05:28:06.174Z,12.96
2023-05-23T05:29:13.254Z,12.90
2023-05-23T05:30:15.333Z,12.87
2023-05-23T05:31:27.902Z,12.73
2023-05-23T05:32:31.407Z,12.75
2023-05-23T05:33:36.442Z,12.72
2023-05-23T05:34:49.440Z,12.82
2023-05-23T05:35:53.047Z,12.84
2023-05-23T05:36:57.030Z,12.83
2023-05-23T05:38:00.825Z,12.87
2023-05-23T05:39:02.844Z,12.78
2023-05-23T05:40:07.373Z,12.69
2023-05-23T05:41:11.228Z,12.67
2023-05-23T05:42:22.419Z,12.64
2023-05-23T05:43:25.636Z,12.66
2023-05-23T05:44:27.927Z,12.64
2023-05-23T05:45:29.907Z,12.68
2023-05-23T05:46:32.251Z,12.67
2023-05-23T05:47:34.393Z,12.72
2023-05-23T05:48:36.741Z,12.69
2023-05-23T05:49:42.441Z,12.68
2023-05-23T05:50:45.585Z,12.70
2023-05-23T05:51:48.064Z,12.73
2023-05-23T05:52:50.191Z,12.77
2023-05-23T05:53:52.202Z,12.77
2023-05-23T05:54:54.309Z,12.77
2023-05-23T05:55:56.297Z,12.67
2023-05-23T05:56:58.626Z,12.62
2023-05-23T05:58:01.660Z,12.54
2023-05-23T05:59:09.113Z,12.65
2023-05-23T06:00:15.386Z,12.63
2023-05-23T06:01:20.376Z,12.54
2023-05-23T06:02:22.512Z,12.58
2023-05-23T06:03:24.771Z,12.55
2023-05-23T06:04:29.484Z,12.60
2023-05-23T06:05:32.732Z,12.62
2023-05-23T06:06:35.829Z,12.60
2023-05-23T06:07:40.925Z,12.58
2023-05-23T06:08:43.352Z,12.57
2023-05-23T06:09:49.858Z,12.60
2023-05-23T06:10:51.991Z,12.66
2023-05-23T06:11:53.990Z,12.67
2023-05-23T06:12:56.216Z,12.70
2023-05-23T06:13:58.185Z,12.72
2023-05-23T06:15:01.224Z,12.74
2023-05-23T06:16:03.365Z,12.63
2023-05-23T06:17:05.573Z,12.66
2023-05-23T06:18:07.588Z,12.63
2023-05-23T06:19:10.664Z,12.63
2023-05-23T06:20:14.250Z,12.53
2023-05-23T06:21:19.607Z,12.54
2023-05-23T06:22:24.728Z,12.52
2023-05-23T06:23:26.753Z,12.59
2023-05-23T06:24:28.792Z,12.60
2023-05-23T06:25:31.042Z,12.55
2023-05-23T06:26:33.555Z,12.59
2023-05-23T06:27:35.810Z,12.60
2023-05-23T06:28:39.772Z,12.62
2023-05-23T06:29:42.383Z,12.55
2023-05-23T06:30:44.492Z,12.59
2023-05-23T06:31:46.561Z,12.59
2023-05-23T06:32:48.778Z,12.63
2023-05-23T06:33:51.253Z,12.60
2023-05-23T06:34:53.222Z,12.55
2023-05-23T06:35:55.718Z,12.51
2023-05-23T06:36:57.687Z,12.53
2023-05-23T06:37:59.853Z,12.55
2023-05-23T06:39:01.852Z,12.55
2023-05-23T06:40:04.047Z,12.61
2023-05-23T06:41:07.238Z,12.56
2023-05-23T06:42:10.350Z,12.62
2023-05-23T06:43:30.739Z,12.54
2023-05-23T06:44:49.866Z,12.51
2023-05-23T06:45:54.095Z,12.54
2023-05-23T06:46:57.704Z,12.53
2023-05-23T06:48:01.310Z,12.52
2023-05-23T06:49:14.285Z,12.45
2023-05-23T06:50:21.489Z,12.43
2023-05-23T06:51:25.558Z,12.50
2023-05-23T06:52:27.916Z,12.52
2023-05-23T06:53:29.906Z,12.54
2023-05-23T06:54:31.991Z,12.48
2023-05-23T06:55:34.151Z,12.34
2023-05-23T06:56:36.403Z,12.37
2023-05-23T06:57:39.718Z,12.40
2023-05-23T06:58:41.821Z,12.35
2023-05-23T06:59:44.048Z,12.31
2023-05-23T07:00:46.456Z,12.32
2023-05-23T07:01:54.923Z,12.22
2023-05-23T07:03:01.387Z,12.18
2023-05-23T07:04:03.666Z,12.07
2023-05-23T07:05:06.046Z,11.98
2023-05-23T07:06:21.856Z,11.90
2023-05-23T07:07:23.938Z,11.96
2023-05-23T07:08:25.952Z,11.97
2023-05-23T07:09:33.516Z,11.91
2023-05-23T07:10:43.865Z,11.94
2023-05-23T07:12:01.343Z,11.96
2023-05-23T07:13:03.328Z,11.91
2023-05-23T07:14:07.628Z,11.93
2023-05-23T07:15:12.767Z,11.90
2023-05-23T07:16:24.371Z,11.81
2023-05-23T07:17:37.559Z,11.84
2023-05-23T07:18:39.658Z,11.86
2023-05-23T07:19:41.757Z,11.81
2023-05-23T07:20:43.845Z,11.79
2023-05-23T07:21:54.692Z,11.83
2023-05-23T07:22:57.438Z,11.81
2023-05-23T07:23:59.445Z,11.83
2023-05-23T07:25:02.821Z,11.85
2023-05-23T07:26:09.834Z,11.93
2023-05-23T07:27:26.980Z,11.92
2023-05-23T07:28:28.999Z,11.82
2023-05-23T07:29:32.252Z,11.84
2023-05-23T07:30:34.306Z,11.75
2023-05-23T07:31:36.467Z,11.76
2023-05-23T07:32:38.626Z,11.81
2023-05-23T07:33:42.391Z,11.80
2023-05-23T07:34:46.887Z,11.81
2023-05-23T07:35:48.943Z,11.79
2023-05-23T07:36:50.975Z,11.86
2023-05-23T07:37:54.054Z,11.91
2023-05-23T07:38:56.407Z,11.96
2023-05-23T07:39:58.420Z,11.92
2023-05-23T07:41:10.569Z,11.92
2023-05-23T07:42:13.815Z,11.93
2023-05-23T07:43:15.897Z,11.94
2023-05-23T07:44:18.850Z,11.97
2023-05-23T07:45:21.030Z,11.99
2023-05-23T07:46:23.338Z,11.94
2023-05-23T07:47:25.488Z,11.98
2023-05-23T07:48:27.737Z,11.90
2023-05-23T07:49:29.879Z,11.93
2023-05-23T07:50:31.924Z,11.99
2023-05-23T07:51:34.405Z,11.94
2023-05-23T07:52:36.373Z,11.90
2023-05-23T07:53:40.423Z,11.97
2023-05-23T07:54:46.214Z,11.82
2023-05-23T07:55:48.637Z,11.84
2023-05-23T07:56:52.218Z,11.80
2023-05-23T07:57:56.443Z,11.80
2023-05-23T07:59:00.165Z,11.81
2023-05-23T08:00:02.265Z,11.74
2023-05-23T08:01:05.800Z,11.75
2023-05-23T08:02:33.908Z,11.82
2023-05-23T08:03:37.506Z,11.75
2023-05-23T08:04:45.931Z,11.68
2023-05-23T08:05:48.140Z,11.70
2023-05-23T08:07:04.502Z,11.68
2023-05-23T08:08:33.797Z,11.77
2023-05-23T08:09:36.189Z,11.74
2023-05-23T08:10:40.172Z,11.78
2023-05-23T08:11:46.522Z,11.86
2023-05-23T08:12:48.599Z,11.82
2023-05-23T08:13:53.343Z,11.78
2023-05-23T08:15:13.155Z,11.85
2023-05-23T08:16:18.898Z,11.81
2023-05-23T08:17:24.547Z,11.85
2023-05-23T08:18:28.483Z,11.86
2023-05-23T08:19:30.675Z,11.73
2023-05-23T08:20:32.803Z,11.79
2023-05-23T08:21:36.380Z,11.82
2023-05-23T08:22:38.458Z,11.84
2023-05-23T08:23:40.993Z,11.82
2023-05-23T08:24:42.979Z,11.90
2023-05-23T08:25:45.022Z,11.92
2023-05-23T08:26:47.131Z,11.96
2023-05-23T08:27:50.388Z,11.95
2023-05-23T08:29:15.602Z,11.96
2023-05-23T08:30:18.268Z,12.02
2023-05-23T08:31:20.646Z,11.89
2023-05-23T08:32:22.816Z,11.97
2023-05-23T08:33:24.992Z,11.89
2023-05-23T08:34:29.726Z,11.90
2023-05-23T08:35:36.405Z,11.83
2023-05-23T08:36:43.098Z,11.90
2023-05-23T08:37:50.174Z,12.01
2023-05-23T08:38:52.532Z,12.12
2023-05-23T08:40:08.647Z,12.18
2023-05-23T08:41:21.501Z,12.23
2023-05-23T08:42:25.977Z,12.40
2023-05-23T08:43:28.699Z,12.57
2023-05-23T08:44:30.876Z,12.53
2023-05-23T08:45:35.994Z,12.56
2023-05-23T08:46:40.301Z,12.59
2023-05-23T08:47:43.338Z,12.41
2023-05-23T08:48:51.595Z,12.41
2023-05-23T08:49:55.261Z,12.40
2023-05-23T08:50:58.478Z,12.33
2023-05-23T08:52:03.399Z,12.36
2023-05-23T08:53:09.071Z,12.28
2023-05-23T08:54:15.435Z,12.33
2023-05-23T08:55:17.763Z,12.38
2023-05-23T08:56:20.062Z,12.48
2023-05-23T08:57:24.463Z,12.66
2023-05-23T08:58:32.120Z,12.71
2023-05-23T08:59:35.269Z,12.91
2023-05-23T09:00:37.371Z,12.97
2023-05-23T09:01:40.118Z,13.05
2023-05-23T09:02:45.197Z,13.07
2023-05-23T09:04:05.054Z,13.42
2023-05-23T09:05:15.950Z,13.51
2023-05-23T09:06:21.355Z,13.77
2023-05-23T09:07:23.691Z,14.15
2023-05-23T09:08:27.274Z,14.61
2023-05-23T09:09:34.041Z,14.90
2023-05-23T09:10:37.901Z,15.10
2023-05-23T09:11:41.560Z,15.06
2023-05-23T09:12:45.446Z,15.52
2023-05-23T09:13:49.829Z,16.05
2023-05-23T09:14:53.152Z,16.32
2023-05-23T09:15:58.142Z,16.12
2023-05-23T09:17:03.859Z,15.96
2023-05-23T09:18:06.687Z,16.03
2023-05-23T09:19:15.925Z,16.03
2023-05-23T09:20:25.313Z,16.08
2023-05-23T09:21:32.938Z,15.99
2023-05-23T09:22:50.152Z,15.81
2023-05-23T09:23:53.459Z,15.86
2023-05-23T09:24:56.376Z,15.81
2023-05-23T09:26:02.101Z,15.88
2023-05-23T09:27:07.492Z,15.62
2023-05-23T09:28:09.642Z,15.39
2023-05-23T09:29:13.530Z,15.27
2023-05-23T09:30:18.789Z,15.23
2023-05-23T09:31:26.209Z,15.26
2023-05-23T09:32:28.275Z,15.66
2023-05-23T09:33:37.513Z,15.51
2023-05-23T09:34:43.133Z,15.59
2023-05-23T09:35:46.279Z,15.10
2023-05-23T09:36:48.575Z,14.86
2023-05-23T09:37:52.508Z,14.78
2023-05-23T09:38:54.548Z,14.71
2023-05-23T09:39:57.193Z,14.82
2023-05-23T09:40:59.624Z,14.84
2023-05-23T09:42:01.688Z,14.94
2023-05-23T09:43:04.788Z,14.71
2023-05-23T09:44:08.387Z,14.39
2023-05-23T09:45:10.860Z,14.48
2023-05-23T09:46:13.135Z,14.40
2023-05-23T09:47:18.199Z,14.27
2023-05-23T09:48:20.394Z,14.29
2023-05-23T09:49:22.498Z,14.40
2023-05-23T09:50:26.328Z,14.17
2023-05-23T09:51:29.240Z,14.29
2023-05-23T09:52:40.547Z,14.24
2023-05-23T09:53:42.602Z,14.18
2023-05-23T09:54:44.624Z,14.11
2023-05-23T09:55:47.010Z,14.03
2023-05-23T09:56:50.847Z,14.05
2023-05-23T09:57:54.651Z,14.15
2023-05-23T09:58:57.224Z,14.27
2023-05-23T10:00:01.183Z,14.50
2023-05-23T10:01:03.865Z,14.61
2023-05-23T10:02:07.222Z,14.97
2023-05-23T10:03:13.910Z,14.92
2023-05-23T10:04:19.724Z,14.87
2023-05-23T10:05:30.713Z,15.15
2023-05-23T10:06:41.983Z,15.33
2023-05-23T10:07:44.111Z,15.50
2023-05-23T10:08:49.375Z,15.64
2023-05-23T10:09:58.775Z,15.57
2023-05-23T10:11:06.801Z,16.08
2023-05-23T10:12:36.815Z,17.17
2023-05-23T10:13:41.640Z,17.90
2023-05-23T10:14:45.513Z,18.59
2023-05-23T10:15:49.921Z,19.07
2023-05-23T10:16:52.161Z,19.28
2023-05-23T10:18:08.236Z,19.38
2023-05-23T10:19:18.667Z,19.46
2023-05-23T10:20:24.961Z,19.04
2023-05-23T10:21:33.207Z,18.69
2023-05-23T10:22:38.620Z,18.22
2023-05-23T10:23:42.250Z,18.03
2023-05-23T10:24:45.329Z,17.62
2023-05-23T10:25:48.371Z,17.52
2023-05-23T10:26:50.691Z,16.82
2023-05-23T10:27:59.560Z,16.46
2023-05-23T10:29:02.859Z,16.17
2023-05-23T10:30:05.838Z,16.04
2023-05-23T10:31:08.151Z,15.81
2023-05-23T10:32:10.435Z,15.76
2023-05-23T10:33:12.600Z,15.74
2023-05-23T10:34:33.461Z,15.75
2023-05-23T10:35:38.371Z,16.09
2023-05-23T10:36:55.691Z,16.71
2023-05-23T10:38:06.850Z,17.29
2023-05-23T10:39:13.300Z,17.41
2023-05-23T10:40:31.683Z,17.32
2023-05-23T10:41:36.572Z,17.28
2023-05-23T10:42:44.210Z,17.32
2023-05-23T10:43:55.200Z,16.80
2023-05-23T10:45:15.608Z,16.62
2023-05-23T10:46:19.861Z,16.43
2023-05-23T10:47:31.027Z,16.42
2023-05-23T10:48:41.538Z,16.17
2023-05-23T10:49:44.712Z,16.59
2023-05-23T10:50:47.458Z,17.24
2023-05-23T10:51:51.461Z,18.15
2023-05-23T10:52:53.588Z,18.37
2023-05-23T10:53:55.709Z,18.52
2023-05-23T10:54:58.519Z,18.69
2023-05-23T10:56:00.630Z,18.47
2023-05-23T10:57:03.907Z,18.46
2023-05-23T10:58:15.584Z,17.91
2023-05-23T10:59:24.021Z,17.78
2023-05-23T11:00:26.029Z,17.08
2023-05-23T11:01:28.150Z,17.05
2023-05-23T11:02:30.453Z,16.62
2023-05-23T11:03:35.740Z,16.61
2023-05-23T11:04:37.905Z,16.54
2023-05-23T11:05:47.445Z,16.94
2023-05-23T11:06:50.953Z,16.77
2023-05-23T11:08:13.698Z,16.90
2023-05-23T11:09:19.413Z,17.63
2023-05-23T11:10:21.647Z,18.88
2023-05-23T11:11:23.629Z,19.94
2023-05-23T11:12:42.232Z,20.53
2023-05-23T11:13:53.147Z,21.47
2023-05-23T11:14:55.984Z,21.60
2023-05-23T11:15:58.221Z,21.21
2023-05-23T11:17:01.357Z,20.55
2023-05-23T11:18:06.491Z,19.86
2023-05-23T11:19:21.979Z,19.91
2023-05-23T11:20:27.254Z,19.87
2023-05-23T11:21:29.363Z,19.42
2023-05-23T11:22:31.869Z,19.36
2023-05-23T11:23:41.836Z,19.57
2023-05-23T11:24:53.408Z,19.45
2023-05-23T11:25:55.521Z,19.62
2023-05-23T11:27:01.251Z,19.46
2023-05-23T11:28:06.227Z,19.15
2023-05-23T11:29:09.293Z,18.58
2023-05-23T11:30:16.280Z,18.66
2023-05-23T11:31:18.851Z,18.27
2023-05-23T11:32:21.163Z,18.23
2023-05-23T11:33:23.360Z,18.38
2023-05-23T11:34:26.125Z,17.61
2023-05-23T11:35:30.546Z,17.30
2023-05-23T11:36:32.711Z,17.29
2023-05-23T11:37:35.127Z,17.25
2023-05-23T11:38:37.454Z,17.50
2023-05-23T11:39:40.514Z,17.72
2023-05-23T11:40:43.809Z,17.89
2023-05-23T11:41:50.368Z,17.75
2023-05-23T11:42:54.149Z,17.96
2023-05-23T11:43:56.486Z,18.01
2023-05-23T11:44:58.538Z,17.73
2023-05-23T11:46:07.999Z,17.95
2023-05-23T11:47:10.126Z,18.28
2023-05-23T11:48:13.045Z,18.23
2023-05-23T11:49:15.138Z,18.34
2023-05-23T11:50:17.247Z,18.15
2023-05-23T11:51:21.243Z,17.99
2023-05-23T11:52:23.355Z,17.95
2023-05-23T11:53:27.294Z,18.08
2023-05-23T11:54:29.298Z,18.08
2023-05-23T11:55:31.392Z,17.83
2023-05-23T11:56:38.869Z,17.48
2023-05-23T11:57:41.187Z,17.68
2023-05-23T11:58:45.161Z,17.81
2023-05-23T11:59:47.221Z,17.76
2023-05-23T12:00:49.242Z,17.58
2023-05-23T12:01:52.022Z,18.48
2023-05-23T12:02:54.287Z,18.79
2023-05-23T12:03:56.457Z,18.82
2023-05-23T12:04:58.501Z,18.72
2023-05-23T12:06:01.930Z,18.69
2023-05-23T12:07:07.620Z,18.54
2023-05-23T12:08:11.141Z,18.64
2023-05-23T12:09:13.201Z,18.69
2023-05-23T12:10:21.770Z,18.61
2023-05-23T12:11:25.220Z,18.86
2023-05-23T12:12:27.633Z,19.32
2023-05-23T12:13:30.202Z,19.35
2023-05-23T12:14:34.071Z,19.56
2023-05-23T12:15:36.189Z,19.60
2023-05-23T12:16:38.401Z,19.73
2023-05-23T12:17:48.152Z,19.75
2023-05-23T12:18:50.231Z,19.16
2023-05-23T12:19:53.002Z,18.71
2023-05-23T12:20:55.024Z,19.10
2023-05-23T12:21:57.062Z,19.47
2023-05-23T12:22:59.050Z,19.74
2023-05-23T12:24:11.067Z,20.02
2023-05-23T12:25:13.063Z,20.36
2023-05-23T12:26:15.068Z,20.46
2023-05-23T12:27:18.648Z,20.09
2023-05-23T12:28:21.442Z,19.75
2023-05-23T12:29:32.801Z,19.57
2023-05-23T12:30:43.119Z,19.39
2023-05-23T12:31:48.214Z,18.93
2023-05-23T12:32:50.545Z,19.16
2023-05-23T12:33:53.184Z,19.37
2023-05-23T12:34:55.238Z,19.74
2023-05-23T12:35:57.353Z,19.15
2023-05-23T12:37:14.934Z,19.06
2023-05-23T12:38:23.636Z,18.72
2023-05-23T12:39:27.541Z,18.79
2023-05-23T12:40:29.928Z,18.76
2023-05-23T12:41:32.762Z,19.36
2023-05-23T12:42:43.880Z,19.65
2023-05-23T12:43:52.858Z,20.19
2023-05-23T12:44:54.979Z,20.35
2023-05-23T12:45:56.959Z,20.60
2023-05-23T12:46:59.227Z,20.09
2023-05-23T12:48:02.275Z,19.83
2023-05-23T12:49:04.674Z,19.61
2023-05-23T12:50:06.969Z,19.17
2023-05-23T12:51:08.996Z,18.94
2023-05-23T12:52:10.966Z,18.79
2023-05-23T12:53:12.997Z,19.15
2023-05-23T12:54:14.970Z,19.08
2023-05-23T12:55:16.970Z,19.33
2023-05-23T12:56:21.360Z,19.77
2023-05-23T12:57:23.310Z,19.63
2023-05-23T12:58:25.326Z,19.52
2023-05-23T12:59:27.312Z,19.42
2023-05-23T13:00:29.527Z,18.81
2023-05-23T13:01:31.711Z,18.79
2023-05-23T13:02:33.978Z,18.50
2023-05-23T13:03:36.129Z,18.42
2023-05-23T13:04:38.140Z,18.28
2023-05-23T13:05:40.359Z,18.65
2023-05-23T13:06:42.546Z,18.93
2023-05-23T13:07:44.548Z,19.05
2023-05-23T13:08:46.900Z,18.83
2023-05-23T13:09:48.928Z,18.71
2023-05-23T13:10:51.059Z,18.74
2023-05-23T13:11:53.191Z,19.07
2023-05-23T13:12:55.233Z,19.00
2023-05-23T13:13:57.978Z,19.04
2023-05-23T13:15:00.078Z,18.96
2023-05-23T13:16:02.108Z,18.28
2023-05-23T13:17:04.265Z,17.87
2023-05-23T13:18:06.820Z,17.67
2023-05-23T13:19:08.855Z,17.97
2023-05-23T13:20:11.033Z,18.18
2023-05-23T13:21:12.998Z,18.59
2023-05-23T13:22:15.003Z,18.64
2023-05-23T13:23:16.995Z,18.78
2023-05-23T13:24:19.171Z,18.96
2023-05-23T13:25:21.628Z,18.59
2023-05-23T13:26:23.586Z,18.75
2023-05-23T13:27:25.680Z,19.04
2023-05-23T13:28:27.808Z,19.31
2023-05-23T13:29:29.792Z,19.65
2023-05-23T13:30:32.182Z,19.92
2023-05-23T13:31:34.354Z,19.93
2023-05-23T13:32:36.428Z,19.71
2023-05-23T13:33:38.592Z,19.74
2023-05-23T13:34:40.626Z,19.76
2023-05-23T13:35:43.023Z,19.46
2023-05-23T13:36:45.310Z,19.19
2023-05-23T13:37:47.401Z,19.04
2023-05-23T13:38:49.372Z,18.82
2023-05-23T13:39:51.323Z,18.63
2023-05-23T13:40:54.236Z,18.54
2023-05-23T13:41:56.268Z,18.32
2023-05-23T13:42:58.310Z,18.27
2023-05-23T13:44:00.428Z,17.91
2023-05-23T13:45:02.418Z,17.83
2023-05-23T13:46:04.509Z,17.86
2023-05-23T13:47:12.867Z,17.98